createdAt,value
2022-10-01T00:04:05.214Z,84.98
2022-10-01T00:19:05.377Z,85.64
2022-10-01T00:34:05.430Z,85.47
2022-10-01T00:49:05.528Z,83.81
2022-10-01T01:04:06.156Z,84.16
2022-10-01T01:19:07.312Z,82.91
2022-10-01T01:34:07.386Z,81.77
2022-10-01T01:49:07.515Z,82.22
2022-10-01T02:04:07.600Z,81.56
2022-10-01T02:19:07.788Z,81.25
2022-10-01T02:34:12.445Z,80.80
2022-10-01T02:49:12.948Z,80.73
2022-10-01T03:04:13.030Z,81.10
2022-10-01T03:19:13.186Z,86.75
2022-10-01T03:34:13.299Z,88.31
2022-10-01T03:49:13.369Z,82.03
2022-10-01T04:04:13.469Z,75.22
2022-10-01T04:19:13.617Z,74.36
2022-10-01T04:34:13.722Z,76.80
2022-10-01T04:49:13.837Z,80.06
2022-10-01T05:04:13.955Z,84.72
2022-10-01T05:19:14.098Z,89.87
2022-10-01T05:34:14.214Z,93.74
2022-10-01T05:49:14.303Z,95.86
2022-10-01T06:04:14.398Z,98.24
2022-10-01T06:19:14.699Z,99.99
2022-10-01T06:34:15.146Z,99.99
2022-10-01T06:49:15.239Z,99.99
2022-10-01T07:04:15.330Z,99.99
2022-10-01T07:19:15.432Z,99.99
2022-10-01T07:34:15.495Z,99.99
2022-10-01T07:49:15.617Z,99.99
2022-10-01T08:04:16.262Z,99.99
2022-10-01T08:19:16.455Z,99.99
2022-10-01T08:34:16.500Z,99.99
2022-10-01T08:49:16.637Z,99.91
2022-10-01T09:04:16.766Z,97.11
2022-10-01T09:19:17.809Z,93.25
2022-10-01T09:34:17.904Z,99.56
2022-10-01T09:49:18.058Z,99.66
2022-10-01T10:04:20.215Z,99.99
2022-10-01T10:19:20.249Z,99.99
2022-10-01T10:34:20.419Z,99.99
2022-10-01T10:49:20.481Z,95.90
2022-10-01T11:04:20.569Z,93.33
2022-10-01T11:19:20.686Z,90.37
2022-10-01T11:34:20.830Z,90.17
2022-10-01T11:49:20.890Z,89.25
2022-10-01T12:04:20.986Z,90.68
2022-10-01T12:19:21.145Z,85.06
2022-10-01T12:34:21.298Z,79.74
2022-10-01T12:49:21.279Z,78.52
2022-10-01T13:04:22.025Z,78.00
2022-10-01T13:19:22.031Z,77.62
2022-10-01T13:34:22.140Z,83.00
2022-10-01T13:49:22.335Z,85.71
2022-10-01T14:04:22.346Z,83.78
2022-10-01T14:19:22.496Z,81.23
2022-10-01T14:34:23.700Z,80.78
2022-10-01T14:49:23.704Z,79.96
2022-10-01T15:04:23.920Z,78.70
2022-10-01T15:19:23.892Z,79.72
2022-10-01T15:34:24.052Z,87.94
2022-10-01T15:49:24.158Z,89.36
2022-10-01T16:04:24.231Z,89.87
2022-10-01T16:19:24.379Z,90.63
2022-10-01T16:34:24.415Z,88.17
2022-10-01T16:49:24.512Z,84.22
2022-10-01T17:04:25.589Z,82.67
2022-10-01T17:19:25.784Z,77.52
2022-10-01T17:34:25.915Z,74.08
2022-10-01T17:49:25.997Z,72.89
2022-10-01T18:04:26.656Z,71.67
2022-10-01T18:19:52.750Z,71.46
2022-10-01T18:34:35.498Z,71.26
2022-10-01T18:49:35.244Z,71.39
2022-10-01T19:04:35.387Z,71.50
2022-10-01T19:19:35.503Z,71.09
2022-10-01T19:34:35.584Z,70.23
2022-10-01T19:49:35.714Z,70.27
2022-10-01T20:04:36.352Z,70.03
2022-10-01T20:19:36.736Z,70.88
2022-10-01T20:34:38.490Z,71.53
2022-10-01T20:49:40.633Z,72.65
2022-10-01T21:04:40.237Z,74.84
2022-10-01T21:19:40.381Z,74.46
2022-10-01T21:34:40.670Z,73.50
2022-10-01T21:49:40.817Z,72.58
2022-10-01T22:04:41.091Z,72.20
2022-10-01T22:19:41.009Z,72.11
2022-10-01T22:34:41.161Z,71.77
2022-10-01T22:49:44.300Z,71.90
2022-10-01T23:04:44.426Z,71.42
2022-10-01T23:19:44.524Z,71.32
2022-10-01T23:34:46.027Z,71.52
2022-10-01T23:49:46.188Z,71.11
